Terminal Aerodrome Forecast
Issued by NWS Dallas/Fort Worth, TX

Home | Current Version | Previous Version | Text Only | Print | Product List | Glossary On
Versions: 1 2 3 4 5 6 7 8 9 10 11 12 13 14 15 16 17 18 19 20 21 22 23 24 25 26 27 28 29 30
000
FTUS44 KFWD 280250 AAA
TAFACT
TAF AMD
KACT 280250Z 2803/2824 08006KT P6SM FEW300
     FM280800 13005KT P6SM BKN300
     FM281500 19013KT P6SM SCT120 SCT300=

USA.gov is the U.S. government's official web portal to all federal, state and local government web resources and services.